createdAt,value
2018-07-02T00:02:26.161Z,17.20
2018-07-02T00:04:54.527Z,17.30
2018-07-02T00:07:23.997Z,17.10
2018-07-02T00:09:52.909Z,17.10
2018-07-02T00:12:22.098Z,16.90
2018-07-02T00:14:51.400Z,17.00
2018-07-02T00:17:19.800Z,17.10
2018-07-02T00:19:48.158Z,17.00
2018-07-02T00:22:16.745Z,16.70
2018-07-02T00:24:45.095Z,16.80
2018-07-02T00:27:13.431Z,16.80
2018-07-02T00:29:41.776Z,16.80
2018-07-02T00:32:10.094Z,16.80
2018-07-02T00:34:38.416Z,16.90
2018-07-02T00:37:06.750Z,16.80
2018-07-02T00:39:35.101Z,16.70
2018-07-02T00:42:03.473Z,16.60
2018-07-02T00:49:28.069Z,16.40
2018-07-02T00:51:56.372Z,16.50
2018-07-02T00:54:24.739Z,16.50
2018-07-02T00:56:53.058Z,16.40
2018-07-02T00:59:21.556Z,16.30
2018-07-02T01:01:49.892Z,16.30
2018-07-02T01:04:18.240Z,16.10
2018-07-02T01:06:46.601Z,16.10
2018-07-02T01:09:14.977Z,16.10
2018-07-02T01:11:43.344Z,16.00
2018-07-02T01:14:11.720Z,16.10
2018-07-02T01:16:40.097Z,16.00
2018-07-02T01:19:08.448Z,15.90
2018-07-02T01:21:36.853Z,15.90
2018-07-02T01:24:05.181Z,16.00
2018-07-02T01:26:33.512Z,15.90
2018-07-02T01:29:01.861Z,15.70
2018-07-02T01:31:30.224Z,15.60
2018-07-02T01:33:58.568Z,15.70
2018-07-02T01:36:26.885Z,15.70
2018-07-02T01:38:55.199Z,15.60
2018-07-02T01:41:23.565Z,15.50
2018-07-02T01:43:51.981Z,15.40
2018-07-02T01:46:20.336Z,15.40
2018-07-02T01:48:48.644Z,15.30
2018-07-02T01:51:16.984Z,15.30
2018-07-02T01:53:45.337Z,15.30
2018-07-02T01:56:13.673Z,15.30
2018-07-02T01:58:42.015Z,15.30
2018-07-02T02:01:10.377Z,15.40
2018-07-02T02:03:38.695Z,15.30
2018-07-02T02:06:07.028Z,15.30
2018-07-02T02:08:35.348Z,15.20
2018-07-02T02:11:03.736Z,15.10
2018-07-02T02:13:32.040Z,15.10
2018-07-02T02:16:00.425Z,14.90
2018-07-02T02:18:28.732Z,14.90
2018-07-02T02:20:57.069Z,14.80
2018-07-02T02:23:25.424Z,14.90
2018-07-02T02:25:53.797Z,14.70
2018-07-02T02:28:22.112Z,14.70
2018-07-02T02:30:50.456Z,14.60
2018-07-02T02:33:18.756Z,14.70
2018-07-02T02:35:47.094Z,14.70
2018-07-02T02:38:15.439Z,14.60
2018-07-02T02:40:43.768Z,14.60
2018-07-02T02:43:12.072Z,14.70
2018-07-02T02:45:40.412Z,14.60
2018-07-02T02:48:08.788Z,14.50
2018-07-02T02:50:37.120Z,14.50
2018-07-02T02:53:05.492Z,14.60
2018-07-02T02:55:33.852Z,14.50
2018-07-02T02:58:02.183Z,14.40
2018-07-02T03:00:30.563Z,14.40
2018-07-02T03:02:58.885Z,14.50
2018-07-02T03:05:27.222Z,14.40
2018-07-02T03:07:55.552Z,14.40
2018-07-02T03:10:23.866Z,14.40
2018-07-02T03:12:52.221Z,14.40
2018-07-02T03:15:20.550Z,14.30
2018-07-02T03:17:48.897Z,14.40
2018-07-02T03:20:17.240Z,14.40
2018-07-02T03:22:45.592Z,14.30
2018-07-02T03:25:13.944Z,14.30
2018-07-02T03:27:42.297Z,14.30
2018-07-02T03:30:10.608Z,14.30
2018-07-02T03:32:38.956Z,14.30
2018-07-02T03:35:07.285Z,14.20
2018-07-02T03:37:35.640Z,14.10
2018-07-02T03:40:04.018Z,14.10
2018-07-02T03:42:32.360Z,14.10
2018-07-02T03:45:00.658Z,14.00
2018-07-02T03:47:29.020Z,13.90
2018-07-02T03:49:57.323Z,13.90
2018-07-02T03:52:25.672Z,14.00
2018-07-02T03:54:53.990Z,14.00
2018-07-02T03:57:22.312Z,13.90
2018-07-02T03:59:50.644Z,13.90
2018-07-02T04:02:18.978Z,13.90
2018-07-02T04:04:47.309Z,13.90
2018-07-02T04:07:15.744Z,14.00
2018-07-02T04:09:44.060Z,13.90
2018-07-02T04:12:12.387Z,14.10
2018-07-02T04:14:40.744Z,14.10
2018-07-02T04:17:09.048Z,14.00
2018-07-02T04:19:37.403Z,13.90
2018-07-02T04:22:05.733Z,13.80
2018-07-02T04:24:34.072Z,13.70
2018-07-02T04:27:02.392Z,13.70
2018-07-02T04:29:30.765Z,13.70
2018-07-02T04:31:59.088Z,13.70
2018-07-02T04:34:28.396Z,13.70
2018-07-02T04:36:56.771Z,13.80
2018-07-02T04:39:25.097Z,13.80
2018-07-02T04:41:53.433Z,13.90
2018-07-02T04:44:21.893Z,14.00
2018-07-02T04:46:50.317Z,14.30
2018-07-02T04:49:18.625Z,14.20
2018-07-02T04:51:46.985Z,14.40
2018-07-02T04:54:15.295Z,14.40
2018-07-02T04:56:43.637Z,14.60
2018-07-02T04:59:11.997Z,14.70
2018-07-02T05:01:40.320Z,14.90
2018-07-02T05:04:08.640Z,15.00
2018-07-02T05:06:36.929Z,15.10
2018-07-02T05:09:07.102Z,15.20
2018-07-02T05:11:35.457Z,15.20
2018-07-02T05:14:03.791Z,15.30
2018-07-02T05:16:32.113Z,15.40
2018-07-02T05:19:00.400Z,15.50
2018-07-02T05:21:28.721Z,15.60
2018-07-02T05:23:57.016Z,15.60
2018-07-02T05:26:25.337Z,15.70
2018-07-02T05:28:53.629Z,15.90
2018-07-02T05:31:21.954Z,16.00
2018-07-02T05:33:50.259Z,16.30
2018-07-02T05:36:18.554Z,16.50
2018-07-02T05:41:14.931Z,17.20
2018-07-02T05:43:43.247Z,17.70
2018-07-02T05:46:14.136Z,18.20
2018-07-02T05:48:42.493Z,18.00
2018-07-02T05:51:10.921Z,17.90
2018-07-02T05:53:39.217Z,17.80
2018-07-02T05:56:07.572Z,17.70
2018-07-02T05:58:35.861Z,18.00
2018-07-02T06:01:04.217Z,18.60
2018-07-02T06:03:32.512Z,18.80
2018-07-02T06:06:00.868Z,19.40
2018-07-02T06:08:29.169Z,19.50
2018-07-02T06:10:57.518Z,19.50
2018-07-02T06:13:25.910Z,19.90
2018-07-02T06:15:54.243Z,20.20
2018-07-02T06:18:22.570Z,20.10
2018-07-02T06:20:50.901Z,20.10
2018-07-02T06:23:19.219Z,20.00
2018-07-02T06:25:47.527Z,20.00
2018-07-02T06:28:15.905Z,20.60
2018-07-02T06:30:44.209Z,20.80
2018-07-02T06:33:12.557Z,20.90
2018-07-02T06:35:40.852Z,20.90
2018-07-02T06:38:09.184Z,20.60
2018-07-02T06:40:37.500Z,19.90
2018-07-02T06:43:05.930Z,19.50
2018-07-02T06:45:34.229Z,19.30
2018-07-02T06:48:02.576Z,19.40
2018-07-02T06:50:30.887Z,19.30
2018-07-02T06:52:59.220Z,19.10
2018-07-02T06:55:27.536Z,19.30
2018-07-02T06:57:55.881Z,19.30
2018-07-02T07:00:24.192Z,19.40
2018-07-02T07:02:52.546Z,19.40
2018-07-02T07:05:20.853Z,19.40
2018-07-02T07:07:49.173Z,19.40
2018-07-02T07:10:17.498Z,19.40
2018-07-02T07:12:45.809Z,19.40
2018-07-02T07:15:14.718Z,19.30
2018-07-02T07:17:43.998Z,19.10
2018-07-02T07:20:12.791Z,19.40
2018-07-02T07:22:42.630Z,19.60
2018-07-02T07:25:12.182Z,19.70
2018-07-02T07:27:40.936Z,19.80
2018-07-02T07:30:09.713Z,19.90
2018-07-02T07:32:38.773Z,19.90
2018-07-02T07:35:08.700Z,20.00
2018-07-02T07:37:38.717Z,20.00
2018-07-02T07:40:09.388Z,20.10
2018-07-02T07:42:38.870Z,20.10
2018-07-02T07:45:08.327Z,20.40
2018-07-02T07:47:37.128Z,21.00
2018-07-02T07:50:05.887Z,21.30
2018-07-02T07:52:34.851Z,21.50
2018-07-02T07:55:03.460Z,21.90
2018-07-02T07:57:33.279Z,22.00
2018-07-02T08:00:02.585Z,22.30
2018-07-02T08:02:31.571Z,22.40
2018-07-02T08:05:00.801Z,22.30
2018-07-02T08:09:58.449Z,22.20
2018-07-02T08:12:27.831Z,22.00
2018-07-02T08:14:56.523Z,21.80
2018-07-02T08:17:25.388Z,22.00
2018-07-02T08:19:54.664Z,22.20
2018-07-02T08:22:27.217Z,22.40
2018-07-02T08:24:56.496Z,22.70
2018-07-02T08:27:25.299Z,23.30
2018-07-02T08:29:54.112Z,23.80
2018-07-02T08:32:22.893Z,24.00
2018-07-02T08:34:52.313Z,24.30
2018-07-02T08:37:21.040Z,24.40
2018-07-02T08:39:49.727Z,24.80
2018-07-02T08:42:19.047Z,25.00
2018-07-02T08:44:48.836Z,25.60
2018-07-02T08:47:17.496Z,25.50
2018-07-02T08:49:46.931Z,26.10
2018-07-02T08:52:15.792Z,26.70
2018-07-02T08:54:44.871Z,26.40
2018-07-02T08:57:14.009Z,26.50
2018-07-02T08:59:42.939Z,26.70
2018-07-02T09:02:11.756Z,26.90
2018-07-02T09:04:42.269Z,25.70
2018-07-02T09:07:12.533Z,25.80
2018-07-02T09:09:42.923Z,25.60
2018-07-02T09:12:12.737Z,25.90
2018-07-02T09:14:41.137Z,26.00
2018-07-02T09:17:09.965Z,25.20
2018-07-02T09:19:39.029Z,25.10
2018-07-02T09:22:08.032Z,25.00
2018-07-02T09:24:36.493Z,25.20
2018-07-02T09:27:07.679Z,25.10
2018-07-02T09:29:37.650Z,24.90
2018-07-02T09:32:06.973Z,24.90
2018-07-02T09:34:35.321Z,24.90
2018-07-02T09:37:04.188Z,25.10
2018-07-02T09:39:34.144Z,24.60
2018-07-02T09:42:03.473Z,24.60
2018-07-02T09:44:31.801Z,24.70
2018-07-02T09:49:29.178Z,25.20
2018-07-02T09:51:58.412Z,25.30
2018-07-02T09:54:27.170Z,25.10
2018-07-02T09:56:55.969Z,25.10
2018-07-02T09:59:24.652Z,25.10
2018-07-02T10:01:53.291Z,25.00
2018-07-02T10:04:22.077Z,25.00
2018-07-02T10:06:50.839Z,25.30
2018-07-02T10:09:21.663Z,25.70
2018-07-02T10:11:50.389Z,26.00
2018-07-02T10:14:18.702Z,26.30
2018-07-02T10:16:48.397Z,26.90
2018-07-02T10:19:17.475Z,27.80
2018-07-02T10:21:46.351Z,28.30
2018-07-02T10:24:14.669Z,27.70
2018-07-02T10:26:43.537Z,27.50
2018-07-02T10:29:13.351Z,27.20
2018-07-02T10:31:43.251Z,27.80
2018-07-02T10:34:12.559Z,28.10
2018-07-02T10:36:41.328Z,28.10
2018-07-02T10:39:09.939Z,28.20
2018-07-02T10:41:39.344Z,28.70
2018-07-02T10:44:08.121Z,28.60
2018-07-02T10:46:37.001Z,28.80
2018-07-02T10:49:05.828Z,29.30
2018-07-02T10:51:35.913Z,29.10
2018-07-02T10:54:04.421Z,29.40
2018-07-02T10:56:33.393Z,29.70
2018-07-02T10:59:02.279Z,29.80
2018-07-02T11:01:31.677Z,29.20
2018-07-02T11:04:00.018Z,29.10
2018-07-02T11:08:57.765Z,30.10
2018-07-02T11:11:27.902Z,30.70
2018-07-02T11:13:56.221Z,30.10
2018-07-02T11:16:25.053Z,30.20
2018-07-02T11:18:54.744Z,30.70
2018-07-02T11:21:23.708Z,30.90
2018-07-02T11:23:52.053Z,31.20
2018-07-02T11:26:20.892Z,31.20
2018-07-02T11:28:49.898Z,30.10
2018-07-02T11:31:18.646Z,29.80
2018-07-02T11:33:46.947Z,29.20
2018-07-02T11:38:44.888Z,29.90
2018-07-02T11:41:14.343Z,30.40
2018-07-02T11:43:42.955Z,30.10
2018-07-02T11:46:13.847Z,31.20
2018-07-02T11:48:42.805Z,30.30
2018-07-02T11:51:12.745Z,29.90
2018-07-02T11:53:42.107Z,30.10
2018-07-02T11:56:11.059Z,30.80
2018-07-02T11:58:39.966Z,31.40
2018-07-02T12:01:08.855Z,31.30
2018-07-02T12:06:06.224Z,31.30
2018-07-02T12:08:35.495Z,30.80
2018-07-02T12:11:05.228Z,31.10
2018-07-02T12:13:33.710Z,31.20
2018-07-02T12:16:02.575Z,31.10
2018-07-02T12:18:31.336Z,30.70
2018-07-02T12:21:00.180Z,31.30
2018-07-02T12:23:29.755Z,31.50
2018-07-02T12:25:58.401Z,30.80
2018-07-02T12:28:27.227Z,31.00
2018-07-02T12:30:55.836Z,30.80
2018-07-02T12:33:24.911Z,31.10
2018-07-02T12:35:53.586Z,31.40
2018-07-02T12:38:22.773Z,31.20
2018-07-02T12:40:56.460Z,31.50
2018-07-02T12:43:26.030Z,31.70
2018-07-02T12:45:54.902Z,31.20
2018-07-02T12:48:24.327Z,31.10
2018-07-02T12:50:53.335Z,30.90
2018-07-02T12:53:22.883Z,30.80
2018-07-02T12:55:51.581Z,30.70
2018-07-02T12:58:21.014Z,30.80
2018-07-02T13:00:49.706Z,30.80
2018-07-02T13:08:16.369Z,30.90
2018-07-02T13:10:45.795Z,30.80
2018-07-02T13:13:14.864Z,30.70
2018-07-02T13:15:43.720Z,30.30
2018-07-02T13:18:12.644Z,30.00
2018-07-02T13:20:42.270Z,29.70
2018-07-02T13:23:10.986Z,29.50
2018-07-02T13:25:40.195Z,29.30
2018-07-02T13:28:10.736Z,28.70
2018-07-02T13:30:39.765Z,28.50
2018-07-02T13:33:08.650Z,28.30
2018-07-02T13:35:39.400Z,28.20
2018-07-02T13:38:08.854Z,28.30
2018-07-02T13:40:37.922Z,27.80
2018-07-02T13:43:06.756Z,27.70
2018-07-02T13:45:35.069Z,27.90
2018-07-02T13:48:03.393Z,27.60
2018-07-02T13:50:31.721Z,27.60
2018-07-02T13:53:00.230Z,27.90
2018-07-02T13:55:28.629Z,28.00
2018-07-02T13:57:56.957Z,27.70
2018-07-02T14:00:25.310Z,27.70
2018-07-02T14:02:53.677Z,27.60
2018-07-02T14:05:21.940Z,27.10
2018-07-02T14:07:50.245Z,27.30
2018-07-02T14:10:18.620Z,27.50
2018-07-02T14:12:46.935Z,27.30
2018-07-02T14:15:15.276Z,27.20
2018-07-02T14:17:43.609Z,27.10
2018-07-02T14:20:11.925Z,26.90
2018-07-02T14:22:40.223Z,26.70
2018-07-02T14:25:08.535Z,26.80
2018-07-02T14:27:36.837Z,26.90
2018-07-02T14:30:06.825Z,26.90
2018-07-02T14:32:35.120Z,26.80
2018-07-02T14:35:03.465Z,26.80
2018-07-02T14:37:31.797Z,26.80
2018-07-02T14:40:00.114Z,26.90
2018-07-02T14:42:28.417Z,27.00
2018-07-02T14:44:56.906Z,27.10
2018-07-02T14:47:25.034Z,26.80
2018-07-02T14:49:53.355Z,26.60
2018-07-02T14:52:21.649Z,26.60
2018-07-02T14:54:49.972Z,26.50
2018-07-02T14:57:18.271Z,26.40
2018-07-02T14:59:46.580Z,26.30
2018-07-02T15:02:14.893Z,26.20
2018-07-02T15:04:43.225Z,26.20
2018-07-02T15:07:11.517Z,26.20
2018-07-02T15:12:07.865Z,26.30
2018-07-02T15:14:36.266Z,26.50
2018-07-02T15:17:04.620Z,26.50
2018-07-02T15:19:33.016Z,26.60
2018-07-02T15:22:01.381Z,26.30
2018-07-02T15:24:29.709Z,26.30
2018-07-02T15:26:58.014Z,26.30
2018-07-02T15:29:26.324Z,26.30
2018-07-02T15:31:54.660Z,26.20
2018-07-02T15:34:22.976Z,26.30
2018-07-02T15:36:51.305Z,26.30
2018-07-02T15:39:19.655Z,26.10
2018-07-02T15:41:48.057Z,26.30
2018-07-02T15:44:16.270Z,26.00
2018-07-02T15:46:44.607Z,25.80
2018-07-02T15:49:12.887Z,25.90
2018-07-02T15:51:41.182Z,26.00
2018-07-02T15:54:09.512Z,25.90
2018-07-02T15:56:37.835Z,26.00
2018-07-02T15:59:06.176Z,26.00
2018-07-02T16:01:34.497Z,25.90
2018-07-02T16:04:02.819Z,25.70
2018-07-02T16:06:31.120Z,25.70
2018-07-02T16:08:59.437Z,25.90
2018-07-02T16:11:27.741Z,25.80
2018-07-02T16:13:56.108Z,25.70
2018-07-02T16:16:24.412Z,25.90
2018-07-02T16:18:52.744Z,25.90
2018-07-02T16:21:21.121Z,26.00
2018-07-02T16:23:49.492Z,25.90
2018-07-02T16:26:17.801Z,25.90
2018-07-02T16:28:46.105Z,25.70
2018-07-02T16:31:14.409Z,25.60
2018-07-02T16:33:42.695Z,25.70
2018-07-02T16:36:11.002Z,25.70
2018-07-02T16:38:39.308Z,25.60
2018-07-02T16:41:07.640Z,25.80
2018-07-02T16:43:35.945Z,25.80
2018-07-02T16:46:04.392Z,25.70
2018-07-02T16:48:32.701Z,25.70
2018-07-02T16:51:01.098Z,25.70
2018-07-02T16:53:29.390Z,25.70
2018-07-02T16:55:57.745Z,25.70
2018-07-02T16:58:26.052Z,25.60
2018-07-02T17:00:54.385Z,25.60
2018-07-02T17:03:22.710Z,25.50
2018-07-02T17:05:51.012Z,25.40
2018-07-02T17:08:19.329Z,25.40
2018-07-02T17:10:47.778Z,25.50
2018-07-02T17:13:16.131Z,25.40
2018-07-02T17:15:44.446Z,25.40
2018-07-02T17:18:12.785Z,25.40
2018-07-02T17:20:41.109Z,25.40
2018-07-02T17:23:09.441Z,25.40
2018-07-02T17:25:37.796Z,25.40
2018-07-02T17:28:06.436Z,25.30
2018-07-02T17:30:35.594Z,25.30
2018-07-02T17:33:03.929Z,25.30
2018-07-02T17:35:32.337Z,25.20
2018-07-02T17:38:00.729Z,25.10
2018-07-02T17:40:29.097Z,25.00
2018-07-02T17:42:57.456Z,25.00
2018-07-02T17:45:25.837Z,25.00
2018-07-02T17:47:54.132Z,25.00
2018-07-02T17:50:22.808Z,25.00
2018-07-02T17:52:51.112Z,24.90
2018-07-02T17:55:19.461Z,24.70
2018-07-02T17:57:47.756Z,24.60
2018-07-02T18:00:16.106Z,24.60
2018-07-02T18:02:44.507Z,24.40
2018-07-02T18:05:12.894Z,24.40
2018-07-02T18:07:41.194Z,24.40
2018-07-02T18:10:09.529Z,24.30
2018-07-02T18:12:37.840Z,24.10
2018-07-02T18:17:35.501Z,23.90
2018-07-02T18:20:03.956Z,23.90
2018-07-02T18:22:32.315Z,23.90
2018-07-02T18:25:00.708Z,23.80
2018-07-02T18:27:29.043Z,23.60
2018-07-02T18:29:57.369Z,23.60
2018-07-02T18:32:25.813Z,23.50
2018-07-02T18:34:54.325Z,23.40
2018-07-02T18:37:31.482Z,23.30
2018-07-02T18:40:21.378Z,23.30
2018-07-02T18:43:17.870Z,23.20
2018-07-02T18:45:46.144Z,23.20
2018-07-02T18:48:14.432Z,23.00
2018-07-02T18:50:43.110Z,22.90
2018-07-02T18:53:11.844Z,22.90
2018-07-02T18:55:40.250Z,22.70
2018-07-02T18:58:09.042Z,22.70
2018-07-02T19:00:37.452Z,22.60
2018-07-02T19:03:05.785Z,22.60
2018-07-02T19:05:34.145Z,22.50
2018-07-02T19:08:02.473Z,22.40
2018-07-02T19:10:30.924Z,22.30
2018-07-02T19:12:59.421Z,22.20
2018-07-02T19:15:27.855Z,22.10
2018-07-02T19:17:56.206Z,22.10
2018-07-02T19:20:24.535Z,21.90
2018-07-02T19:22:52.856Z,21.80
2018-07-02T19:25:21.184Z,21.60
2018-07-02T19:27:49.596Z,21.50
2018-07-02T19:30:18.067Z,21.40
2018-07-02T19:32:46.433Z,21.30
2018-07-02T19:35:14.756Z,21.20
2018-07-02T19:37:43.089Z,21.10
2018-07-02T19:40:11.434Z,21.10
2018-07-02T19:42:39.969Z,21.00
2018-07-02T19:45:08.335Z,21.10
2018-07-02T19:47:36.712Z,21.00
2018-07-02T19:50:05.112Z,21.00
2018-07-02T19:52:33.505Z,20.80
2018-07-02T19:55:01.924Z,20.60
2018-07-02T19:57:30.278Z,20.30
2018-07-02T19:59:58.701Z,20.00
2018-07-02T20:02:27.043Z,19.80
2018-07-02T20:04:55.388Z,19.70
2018-07-02T20:07:23.800Z,19.60
2018-07-02T20:09:52.110Z,19.50
2018-07-02T20:12:20.453Z,19.50
2018-07-02T20:14:48.754Z,19.30
2018-07-02T20:17:17.076Z,19.20
2018-07-02T20:22:13.446Z,18.90
2018-07-02T20:24:42.612Z,18.80
2018-07-02T20:27:10.989Z,18.70
2018-07-02T20:29:39.282Z,18.50
2018-07-02T20:32:07.596Z,18.50
2018-07-02T20:34:35.932Z,18.30
2018-07-02T20:37:04.372Z,18.20
2018-07-02T20:39:32.693Z,18.10
2018-07-02T20:42:01.007Z,18.10
2018-07-02T20:44:29.349Z,18.10
2018-07-02T20:46:57.661Z,18.10
2018-07-02T20:49:26.001Z,18.10
2018-07-02T20:51:54.315Z,18.00
2018-07-02T20:54:23.172Z,17.90
2018-07-02T20:56:51.572Z,17.90
2018-07-02T20:59:19.915Z,17.80
2018-07-02T21:01:48.197Z,17.80
2018-07-02T21:04:16.532Z,17.70
2018-07-02T21:06:44.849Z,17.50
2018-07-02T21:09:13.139Z,17.40
2018-07-02T21:11:41.449Z,17.30
2018-07-02T21:14:09.789Z,17.20
2018-07-02T21:16:38.126Z,17.10
2018-07-02T21:19:06.539Z,17.00
2018-07-02T21:21:35.071Z,16.90
2018-07-02T21:24:03.506Z,16.80
2018-07-02T21:26:31.956Z,16.80
2018-07-02T21:29:00.357Z,16.70
2018-07-02T21:31:28.648Z,16.70
2018-07-02T21:33:56.988Z,16.60
2018-07-02T21:36:25.304Z,16.60
2018-07-02T21:38:53.688Z,16.70
2018-07-02T21:41:22.111Z,16.70
2018-07-02T21:43:50.589Z,16.60
2018-07-02T21:46:18.928Z,16.80
2018-07-02T21:48:47.236Z,16.90
2018-07-02T21:51:15.546Z,16.90
2018-07-02T21:53:43.892Z,16.90
2018-07-02T21:56:12.202Z,16.70
2018-07-02T21:58:40.551Z,16.60
2018-07-02T22:01:08.968Z,16.60
2018-07-02T22:03:37.313Z,16.40
2018-07-02T22:06:06.020Z,16.30
2018-07-02T22:08:34.345Z,16.30
2018-07-02T22:11:02.738Z,16.30
2018-07-02T22:13:31.000Z,16.40
2018-07-02T22:15:59.326Z,16.20
2018-07-02T22:18:27.730Z,16.10
2018-07-02T22:20:56.033Z,16.10
2018-07-02T22:23:24.389Z,16.30
2018-07-02T22:25:52.700Z,16.40
2018-07-02T22:28:21.037Z,16.30
2018-07-02T22:30:49.336Z,16.20
2018-07-02T22:33:17.668Z,16.00
2018-07-02T22:35:45.974Z,15.90
2018-07-02T22:38:14.292Z,15.80
2018-07-02T22:40:42.596Z,15.70
2018-07-02T22:43:10.931Z,15.60
2018-07-02T22:45:39.228Z,15.60
2018-07-02T22:48:07.585Z,15.50
2018-07-02T22:50:35.877Z,15.30
2018-07-02T22:53:04.221Z,15.40
2018-07-02T22:55:42.524Z,15.40
2018-07-02T22:58:10.869Z,15.30
2018-07-02T23:00:39.193Z,15.30
2018-07-02T23:03:08.376Z,15.20
2018-07-02T23:05:36.681Z,15.20
2018-07-02T23:08:05.103Z,15.20
2018-07-02T23:10:33.624Z,15.20
2018-07-02T23:13:01.978Z,15.30
2018-07-02T23:15:30.297Z,15.30
2018-07-02T23:17:58.617Z,15.20
2018-07-02T23:20:26.950Z,15.20
2018-07-02T23:23:00.796Z,15.10
2018-07-02T23:25:29.649Z,15.10
2018-07-02T23:27:59.251Z,15.10
2018-07-02T23:30:28.273Z,15.10
2018-07-02T23:32:56.665Z,15.10
2018-07-02T23:37:53.369Z,15.00
2018-07-02T23:40:23.092Z,14.90
2018-07-02T23:42:52.482Z,14.90
2018-07-02T23:45:21.432Z,14.80
2018-07-02T23:47:49.788Z,14.80
2018-07-02T23:50:18.362Z,14.80
2018-07-02T23:52:46.652Z,14.80
2018-07-02T23:55:14.984Z,14.70
2018-07-02T23:57:43.281Z,14.70
